Time;durP1;ratioP1;P1;durP2;ratioP2;P2;SDS_P1;SDS_P2;PMS_P1;PMS_P2;Temp;Humidity;BMP_temperature;BMP_pressure;BME280_temperature;BME280_humidity;BME280_pressure;Samples;Min_cycle;Max_cycle;Signal;HPM_P1;HPM_P2
2022/07/23 00:01:38;;;;;;;9.02;6.00;;;;;;;;;;5093224;28;20519;-75
2022/07/23 00:04:04;;;;;;;7.45;5.28;;;;;;;;;;5093182;28;20091;-76
2022/07/23 00:06:30;;;;;;;12.45;5.53;;;;;;;;;;5075019;28;20013;-74
2022/07/23 00:08:56;;;;;;;6.53;4.95;;;;;;;;;;5092940;28;20550;-73
2022/07/23 00:11:22;;;;;;;8.40;4.70;;;;;;;;;;5092734;28;20016;-76
2022/07/23 00:13:49;;;;;;;8.77;4.38;;;;;;;;;;5092923;28;20024;-76
2022/07/23 00:16:15;;;;;;;7.85;5.13;;;;;;;;;;5093137;28;20020;-76
2022/07/23 00:18:41;;;;;;;6.53;4.53;;;;;;;;;;5093068;28;20059;-76
2022/07/23 00:21:07;;;;;;;9.15;5.00;;;;;;;;;;5092728;28;20531;-74
2022/07/23 00:23:33;;;;;;;10.30;5.10;;;;;;;;;;5092921;28;20081;-74
2022/07/23 00:25:59;;;;;;;7.00;4.65;;;;;;;;;;5092733;28;20466;-75
2022/07/23 00:28:26;;;;;;;7.88;5.10;;;;;;;;;;5074253;28;20070;-76
2022/07/23 00:30:53;;;;;;;6.95;4.68;;;;;;;;;;5092778;28;20050;-76
2022/07/23 00:33:19;;;;;;;8.07;4.65;;;;;;;;;;5092625;28;20066;-76
2022/07/23 00:35:45;;;;;;;7.43;4.68;;;;;;;;;;5092581;28;20028;-73
2022/07/23 00:38:11;;;;;;;6.68;4.28;;;;;;;;;;5074693;28;20369;-73
2022/07/23 00:40:38;;;;;;;5.28;4.32;;;;;;;;;;5092734;28;20027;-73
2022/07/23 00:43:04;;;;;;;6.47;4.93;;;;;;;;;;5092851;28;20044;-75
2022/07/23 00:45:31;;;;;;;8.20;4.20;;;;;;;;;;5091940;28;20020;-73
2022/07/23 00:47:57;;;;;;;6.95;4.88;;;;;;;;;;5092592;28;20103;-74
2022/07/23 00:50:24;;;;;;;6.60;4.72;;;;;;;;;;5092716;28;20020;-75
2022/07/23 00:52:50;;;;;;;7.95;5.10;;;;;;;;;;5092392;28;20021;-76
2022/07/23 00:55:16;;;;;;;4.75;4.05;;;;;;;;;;5092817;28;20114;-75
2022/07/23 00:57:42;;;;;;;8.90;4.65;;;;;;;;;;5092445;28;20031;-74
2022/07/23 01:00:10;;;;;;;8.10;4.38;;;;;;;;;;5092590;28;20036;-71
2022/07/23 01:02:36;;;;;;;7.47;4.28;;;;;;;;;;5092538;28;20096;-75
2022/07/23 01:05:03;;;;;;;4.45;4.03;;;;;;;;;;5092394;28;20012;-75
2022/07/23 01:07:29;;;;;;;6.32;4.57;;;;;;;;;;5074331;28;20466;-75
2022/07/23 01:09:56;;;;;;;9.60;4.57;;;;;;;;;;5074147;28;20023;-75
2022/07/23 01:12:22;;;;;;;8.05;4.88;;;;;;;;;;5092535;28;20019;-75
2022/07/23 01:14:58;;;;;;;6.82;4.50;;;;;;;;;;5092262;28;20039;-75
2022/07/23 01:17:24;;;;;;;6.80;4.72;;;;;;;;;;5073357;28;20024;-73
2022/07/23 01:19:51;;;;;;;7.15;4.80;;;;;;;;;;5092276;28;20036;-76
2022/07/23 01:22:18;;;;;;;5.80;4.35;;;;;;;;;;5093930;28;20103;-74
2022/07/23 01:24:44;;;;;;;8.00;4.07;;;;;;;;;;5096128;28;20494;-74
2022/07/23 01:27:12;;;;;;;7.03;4.53;;;;;;;;;;5095912;28;20028;-75
2022/07/23 01:29:38;;;;;;;8.43;4.65;;;;;;;;;;5095663;28;20055;-75
2022/07/23 01:32:05;;;;;;;7.10;4.55;;;;;;;;;;5096137;28;20051;-75
2022/07/23 01:34:31;;;;;;;7.70;4.65;;;;;;;;;;5095935;28;20028;-76
2022/07/23 01:36:57;;;;;;;9.25;5.13;;;;;;;;;;5095727;28;20019;-73
2022/07/23 01:39:23;;;;;;;8.20;4.80;;;;;;;;;;5095791;28;20070;-73
2022/07/23 01:41:49;;;;;;;8.65;5.40;;;;;;;;;;5095671;28;20020;-74
2022/07/23 01:44:15;;;;;;;6.95;4.75;;;;;;;;;;5095819;28;20036;-75
2022/07/23 01:46:41;;;;;;;6.78;4.25;;;;;;;;;;5095747;28;20020;-73
2022/07/23 01:49:07;;;;;;;7.95;4.88;;;;;;;;;;5095739;28;20095;-73
2022/07/23 01:51:33;;;;;;;6.75;4.45;;;;;;;;;;5095430;28;20020;-74
2022/07/23 01:53:59;;;;;;;5.28;4.25;;;;;;;;;;5095349;28;20016;-74
2022/07/23 01:56:26;;;;;;;8.52;5.03;;;;;;;;;;5095454;28;20077;-72
2022/07/23 01:58:52;;;;;;;8.27;4.85;;;;;;;;;;5095079;28;20032;-72
2022/07/23 02:01:18;;;;;;;7.13;4.75;;;;;;;;;;5095523;28;20032;-72
2022/07/23 02:03:44;;;;;;;5.80;4.57;;;;;;;;;;5095316;28;20024;-73
2022/07/23 02:06:10;;;;;;;8.05;4.38;;;;;;;;;;5095266;28;20103;-73
2022/07/23 02:08:36;;;;;;;6.07;4.55;;;;;;;;;;5095376;28;20021;-73
2022/07/23 02:11:02;;;;;;;8.07;4.70;;;;;;;;;;5094983;28;20043;-73
2022/07/23 02:13:29;;;;;;;6.32;4.40;;;;;;;;;;5095155;28;20055;-73
2022/07/23 02:15:55;;;;;;;8.15;4.55;;;;;;;;;;5095156;28;20069;-72
2022/07/23 02:18:21;;;;;;;8.88;4.60;;;;;;;;;;5095074;28;20114;-73
2022/07/23 02:20:47;;;;;;;6.47;4.53;;;;;;;;;;5076712;28;20490;-72
2022/07/23 02:23:13;;;;;;;7.10;4.78;;;;;;;;;;5095018;28;20027;-72
2022/07/23 02:25:39;;;;;;;8.25;4.80;;;;;;;;;;5095148;28;20051;-72
2022/07/23 02:28:06;;;;;;;9.20;4.70;;;;;;;;;;5094528;28;20024;-73
2022/07/23 02:30:32;;;;;;;7.25;4.47;;;;;;;;;;5094744;28;20059;-76
2022/07/23 02:32:58;;;;;;;7.85;4.80;;;;;;;;;;5094838;28;20024;-73
2022/07/23 02:35:24;;;;;;;6.60;5.05;;;;;;;;;;5095018;28;20024;-75
2022/07/23 02:37:50;;;;;;;7.70;5.00;;;;;;;;;;5094754;28;20027;-76
2022/07/23 02:40:17;;;;;;;5.68;4.30;;;;;;;;;;5094630;28;20444;-75
2022/07/23 02:42:43;;;;;;;5.82;4.45;;;;;;;;;;5095111;28;20030;-73
2022/07/23 02:45:09;;;;;;;6.72;4.13;;;;;;;;;;5094533;28;20434;-75
2022/07/23 02:47:35;;;;;;;11.32;5.00;;;;;;;;;;5094776;28;20378;-76
2022/07/23 02:50:01;;;;;;;8.00;4.45;;;;;;;;;;5094863;28;20111;-76
2022/07/23 02:52:27;;;;;;;5.20;4.45;;;;;;;;;;5076395;28;20451;-72
2022/07/23 02:54:53;;;;;;;7.10;4.65;;;;;;;;;;5094678;28;20023;-76
2022/07/23 02:57:20;;;;;;;6.95;4.53;;;;;;;;;;5094156;28;20512;-77
2022/07/23 02:59:46;;;;;;;5.40;4.20;;;;;;;;;;5094193;28;20474;-76
2022/07/23 03:02:12;;;;;;;5.78;4.65;;;;;;;;;;5094279;28;20027;-77
2022/07/23 03:04:38;;;;;;;6.63;4.68;;;;;;;;;;5094179;28;20099;-77
2022/07/23 03:07:04;;;;;;;9.25;4.45;;;;;;;;;;5093888;28;20374;-74
2022/07/23 03:09:30;;;;;;;7.80;4.93;;;;;;;;;;5074442;28;20119;-74
2022/07/23 03:11:56;;;;;;;6.97;4.40;;;;;;;;;;5093927;28;20020;-73
2022/07/23 03:14:22;;;;;;;7.57;4.47;;;;;;;;;;5094038;28;20415;-74
2022/07/23 03:16:49;;;;;;;8.38;4.78;;;;;;;;;;5094032;28;20032;-74
2022/07/23 03:19:15;;;;;;;7.07;5.13;;;;;;;;;;5092770;28;20516;-74
2022/07/23 03:21:41;;;;;;;8.88;5.22;;;;;;;;;;5093830;28;20024;-72
2022/07/23 03:24:09;;;;;;;10.48;4.72;;;;;;;;;;5093793;28;20034;-72
2022/07/23 03:26:35;;;;;;;14.00;6.60;;;;;;;;;;5093887;28;20102;-72
2022/07/23 03:29:03;;;;;;;11.98;5.10;;;;;;;;;;5093338;28;20044;-71
2022/07/23 03:31:30;;;;;;;11.25;4.82;;;;;;;;;;5093558;28;20042;-71
2022/07/23 03:33:56;;;;;;;6.57;5.00;;;;;;;;;;5075413;28;20497;-71
2022/07/23 03:36:22;;;;;;;6.68;4.65;;;;;;;;;;5093473;28;20024;-71
2022/07/23 03:38:48;;;;;;;7.63;4.55;;;;;;;;;;5093565;28;20036;-71
2022/07/23 03:41:14;;;;;;;6.38;4.40;;;;;;;;;;5093511;28;20024;-71
2022/07/23 03:43:40;;;;;;;8.32;4.93;;;;;;;;;;5093219;28;20104;-72
2022/07/23 03:46:06;;;;;;;7.97;5.20;;;;;;;;;;5092908;28;20024;-71
2022/07/23 03:48:32;;;;;;;5.88;4.78;;;;;;;;;;5093360;28;20027;-70
2022/07/23 03:50:58;;;;;;;8.55;4.80;;;;;;;;;;5093333;28;20024;-70
2022/07/23 03:53:24;;;;;;;7.88;4.75;;;;;;;;;;5092395;28;20051;-70
2022/07/23 03:55:50;;;;;;;6.88;5.10;;;;;;;;;;5093266;28;20020;-71
2022/07/23 03:58:16;;;;;;;11.98;4.93;;;;;;;;;;5092972;28;20534;-72
2022/07/23 04:00:42;;;;;;;8.65;4.78;;;;;;;;;;5093040;28;20035;-71
2022/07/23 04:03:08;;;;;;;10.73;5.10;;;;;;;;;;5093051;28;20027;-73
2022/07/23 04:05:34;;;;;;;10.60;4.75;;;;;;;;;;5093167;28;20032;-73
2022/07/23 04:08:01;;;;;;;11.70;5.22;;;;;;;;;;5074728;28;20024;-73
2022/07/23 04:10:27;;;;;;;8.77;5.72;;;;;;;;;;5093163;28;20042;-73
2022/07/23 04:12:53;;;;;;;15.10;5.88;;;;;;;;;;5071720;28;20470;-73
2022/07/23 04:15:19;;;;;;;9.82;4.88;;;;;;;;;;5087359;28;20073;-74
2022/07/23 04:17:46;;;;;;;7.45;5.60;;;;;;;;;;5089027;28;20066;-74
2022/07/23 04:20:16;;;;;;;9.60;5.10;;;;;;;;;;5086225;28;20031;-73
2022/07/23 04:22:42;;;;;;;7.75;4.82;;;;;;;;;;5085658;28;20523;-74
2022/07/23 04:25:08;;;;;;;12.07;5.57;;;;;;;;;;5061074;28;20383;-73
2022/07/23 04:27:34;;;;;;;9.85;5.00;;;;;;;;;;5083385;28;20032;-73
2022/07/23 04:30:00;;;;;;;7.15;4.60;;;;;;;;;;5084079;28;20502;-73
2022/07/23 04:32:26;;;;;;;7.53;5.20;;;;;;;;;;5084162;28;20510;-72
2022/07/23 04:34:52;;;;;;;9.45;4.65;;;;;;;;;;5085894;28;20020;-71
2022/07/23 04:37:18;;;;;;;11.07;5.32;;;;;;;;;;5083719;28;20116;-71
2022/07/23 04:39:45;;;;;;;7.03;4.57;;;;;;;;;;5084752;28;20041;-72
2022/07/23 04:42:11;;;;;;;8.23;4.45;;;;;;;;;;5083141;28;21245;-71
2022/07/23 04:44:37;;;;;;;11.00;7.65;;;;;;;;;;5083035;28;20035;-71
2022/07/23 04:47:03;;;;;;;9.70;5.65;;;;;;;;;;5084051;28;20017;-71
2022/07/23 04:49:29;;;;;;;7.28;5.00;;;;;;;;;;5083629;28;20057;-72
2022/07/23 04:51:55;;;;;;;9.43;5.40;;;;;;;;;;5082429;28;20025;-71
2022/07/23 04:54:21;;;;;;;5.78;4.43;;;;;;;;;;5082862;28;20059;-72
2022/07/23 04:56:48;;;;;;;9.55;5.10;;;;;;;;;;5088794;28;20112;-72
2022/07/23 04:59:14;;;;;;;7.38;5.20;;;;;;;;;;5096366;28;20075;-70
2022/07/23 05:01:41;;;;;;;10.15;5.32;;;;;;;;;;5096564;28;20073;-71
2022/07/23 05:04:07;;;;;;;7.97;5.07;;;;;;;;;;5096575;28;20073;-72
2022/07/23 05:06:33;;;;;;;8.85;5.82;;;;;;;;;;5096465;28;20028;-72
2022/07/23 05:08:59;;;;;;;12.38;5.55;;;;;;;;;;5096351;28;20028;-70
2022/07/23 05:11:25;;;;;;;11.45;5.53;;;;;;;;;;5096548;28;20052;-71
2022/07/23 05:13:51;;;;;;;17.05;6.22;;;;;;;;;;5096153;28;20016;-71
2022/07/23 05:16:17;;;;;;;10.90;7.55;;;;;;;;;;5096343;28;20150;-72
2022/07/23 05:18:44;;;;;;;12.82;6.20;;;;;;;;;;5096017;28;20012;-71
2022/07/23 05:21:10;;;;;;;11.30;6.22;;;;;;;;;;5096158;28;20539;-71
2022/07/23 05:23:36;;;;;;;7.63;5.38;;;;;;;;;;5077741;28;20470;-72
2022/07/23 05:26:02;;;;;;;13.68;6.15;;;;;;;;;;5096114;28;20382;-73
2022/07/23 05:28:28;;;;;;;12.27;5.85;;;;;;;;;;5095421;28;20024;-71
2022/07/23 05:30:54;;;;;;;11.43;5.57;;;;;;;;;;5096001;28;20039;-72
2022/07/23 05:33:20;;;;;;;9.10;5.63;;;;;;;;;;5095965;28;20040;-72
2022/07/23 05:35:47;;;;;;;12.07;5.55;;;;;;;;;;5095918;28;20031;-72
2022/07/23 05:38:13;;;;;;;6.43;5.45;;;;;;;;;;5095726;28;20099;-72
2022/07/23 05:40:39;;;;;;;20.75;5.70;;;;;;;;;;5095711;28;20090;-72
2022/07/23 05:43:05;;;;;;;16.38;6.35;;;;;;;;;;5076796;28;20036;-72
2022/07/23 05:45:31;;;;;;;10.43;5.53;;;;;;;;;;5095506;28;20062;-72
2022/07/23 05:47:57;;;;;;;8.43;5.32;;;;;;;;;;5095795;28;20429;-73
2022/07/23 05:50:24;;;;;;;11.23;5.95;;;;;;;;;;5095612;28;20024;-73
2022/07/23 05:52:50;;;;;;;10.88;5.40;;;;;;;;;;5096992;28;20028;-72
2022/07/23 05:55:16;;;;;;;11.82;7.35;;;;;;;;;;5079586;28;20028;-72
2022/07/23 05:57:42;;;;;;;8.68;7.38;;;;;;;;;;5095913;28;20356;-72
2022/07/23 06:00:09;;;;;;;12.00;7.03;;;;;;;;;;5095600;28;20043;-72
2022/07/23 06:02:35;;;;;;;10.68;6.63;;;;;;;;;;5096564;28;20106;-71
2022/07/23 06:05:01;;;;;;;15.27;8.15;;;;;;;;;;5095787;28;20020;-72
2022/07/23 06:07:27;;;;;;;9.30;6.15;;;;;;;;;;5077108;28;20030;-72
2022/07/23 06:09:53;;;;;;;13.15;6.43;;;;;;;;;;5095645;28;20028;-72
2022/07/23 06:12:19;;;;;;;8.00;5.40;;;;;;;;;;5095090;28;20031;-73
2022/07/23 06:14:48;;;;;;;7.85;5.95;;;;;;;;;;5095965;28;20429;-72
2022/07/23 06:17:14;;;;;;;7.75;5.18;;;;;;;;;;5095070;28;20008;-74
2022/07/23 06:19:40;;;;;;;10.07;5.70;;;;;;;;;;5095055;28;20032;-73
2022/07/23 06:22:06;;;;;;;7.43;6.00;;;;;;;;;;5094863;28;20058;-73
2022/07/23 06:24:32;;;;;;;12.07;9.10;;;;;;;;;;5076937;28;20030;-74
2022/07/23 06:26:58;;;;;;;10.45;8.32;;;;;;;;;;5076411;28;20501;-74
2022/07/23 06:29:24;;;;;;;9.10;7.25;;;;;;;;;;5094176;28;20092;-75
2022/07/23 06:31:51;;;;;;;6.68;5.90;;;;;;;;;;5094779;28;20054;-73
2022/07/23 06:34:17;;;;;;;9.07;6.88;;;;;;;;;;5076474;28;20028;-74
2022/07/23 06:36:43;;;;;;;8.93;5.50;;;;;;;;;;5094583;28;20769;-74
2022/07/23 06:39:09;;;;;;;10.43;6.20;;;;;;;;;;5094464;28;20428;-74
2022/07/23 06:41:35;;;;;;;8.82;6.53;;;;;;;;;;5094799;28;20035;-73
2022/07/23 06:44:01;;;;;;;15.48;7.72;;;;;;;;;;5075082;28;20027;-74
2022/07/23 06:46:27;;;;;;;12.02;7.30;;;;;;;;;;5094888;28;20028;-73
2022/07/23 06:48:53;;;;;;;11.75;6.82;;;;;;;;;;5093463;28;20028;-74
2022/07/23 06:51:20;;;;;;;10.65;7.50;;;;;;;;;;5094447;28;20024;-73
2022/07/23 06:53:46;;;;;;;13.98;6.82;;;;;;;;;;5094485;28;20047;-73
2022/07/23 06:56:12;;;;;;;11.93;7.28;;;;;;;;;;5094151;28;20077;-73
2022/07/23 06:58:38;;;;;;;14.50;7.50;;;;;;;;;;5093713;28;20026;-73
2022/07/23 07:01:04;;;;;;;9.93;7.85;;;;;;;;;;5075900;28;20559;-73
2022/07/23 07:03:30;;;;;;;14.38;7.10;;;;;;;;;;5093980;28;20024;-73
2022/07/23 07:05:57;;;;;;;12.63;7.20;;;;;;;;;;5094182;28;20051;-72
2022/07/23 07:08:23;;;;;;;10.27;6.88;;;;;;;;;;5094022;28;20028;-73
2022/07/23 07:10:50;;;;;;;11.60;8.43;;;;;;;;;;5093882;28;20526;-72
2022/07/23 07:13:16;;;;;;;25.38;9.45;;;;;;;;;;5093791;28;20020;-72
2022/07/23 07:15:42;;;;;;;10.13;6.93;;;;;;;;;;5079641;28;20024;-72
2022/07/23 07:18:08;;;;;;;38.95;10.98;;;;;;;;;;5093818;28;20581;-71
2022/07/23 07:20:34;;;;;;;15.50;7.55;;;;;;;;;;5092809;28;20394;-72
2022/07/23 07:23:00;;;;;;;13.65;8.02;;;;;;;;;;5093870;28;20072;-69
2022/07/23 07:25:26;;;;;;;12.90;7.70;;;;;;;;;;5093545;28;20027;-70
2022/07/23 07:27:52;;;;;;;13.10;7.53;;;;;;;;;;5075314;28;20572;-71
2022/07/23 07:30:18;;;;;;;15.98;8.02;;;;;;;;;;5079087;28;20529;-71
2022/07/23 07:32:45;;;;;;;16.77;7.75;;;;;;;;;;5091921;28;20035;-72
2022/07/23 07:35:11;;;;;;;14.15;7.30;;;;;;;;;;5091779;28;20027;-72
2022/07/23 07:37:37;;;;;;;14.95;8.18;;;;;;;;;;5093088;28;20024;-73
2022/07/23 07:40:03;;;;;;;14.50;7.32;;;;;;;;;;5089974;28;20028;-73
2022/07/23 07:42:30;;;;;;;14.75;7.97;;;;;;;;;;5092899;28;20445;-73
2022/07/23 07:44:56;;;;;;;15.82;8.10;;;;;;;;;;5074640;28;20107;-72
2022/07/23 07:47:22;;;;;;;14.88;6.63;;;;;;;;;;5092947;28;20016;-71
2022/07/23 07:49:48;;;;;;;14.23;7.95;;;;;;;;;;5092895;28;20028;-73
2022/07/23 07:52:14;;;;;;;16.75;8.23;;;;;;;;;;5092801;28;20020;-75
2022/07/23 07:54:40;;;;;;;13.02;7.30;;;;;;;;;;5092788;28;20059;-74
2022/07/23 07:57:06;;;;;;;14.73;7.75;;;;;;;;;;5092976;28;20016;-71
2022/07/23 07:59:32;;;;;;;26.50;7.43;;;;;;;;;;5092644;28;20406;-73
2022/07/23 08:01:58;;;;;;;19.30;7.78;;;;;;;;;;5087302;28;20360;-71
2022/07/23 08:04:24;;;;;;;9.90;7.38;;;;;;;;;;5092594;28;20394;-72
2022/07/23 08:06:50;;;;;;;13.15;8.05;;;;;;;;;;5092589;28;20024;-71
2022/07/23 08:09:16;;;;;;;13.77;9.90;;;;;;;;;;5092351;28;20415;-71
2022/07/23 08:11:42;;;;;;;27.05;23.05;;;;;;;;;;5092478;28;20107;-72
2022/07/23 08:14:10;;;;;;;28.75;21.02;;;;;;;;;;5092151;28;20624;-72
2022/07/23 08:16:37;;;;;;;38.58;30.70;;;;;;;;;;5092346;28;20028;-71
2022/07/23 08:19:03;;;;;;;60.95;54.35;;;;;;;;;;5092429;28;20032;-72
2022/07/23 08:21:29;;;;;;;81.22;72.32;;;;;;;;;;5092251;28;20048;-74
2022/07/23 08:23:55;;;;;;;65.60;55.42;;;;;;;;;;5074057;28;20112;-73
2022/07/23 08:26:21;;;;;;;22.88;17.77;;;;;;;;;;5073794;28;20020;-73
2022/07/23 08:28:47;;;;;;;73.65;63.90;;;;;;;;;;5090795;28;20036;-74
2022/07/23 08:31:16;;;;;;;43.25;36.75;;;;;;;;;;5088359;28;20467;-74
2022/07/23 08:33:42;;;;;;;38.70;32.28;;;;;;;;;;5091601;28;20026;-72
2022/07/23 08:36:08;;;;;;;51.80;44.15;;;;;;;;;;5091581;28;20482;-71
2022/07/23 08:38:35;;;;;;;23.23;16.75;;;;;;;;;;5085149;28;20033;-72
2022/07/23 08:41:02;;;;;;;170.35;139.50;;;;;;;;;;5090241;28;20385;-73
2022/07/23 08:43:30;;;;;;;132.50;108.18;;;;;;;;;;5111289;22;20041;-73
2022/07/23 08:45:58;;;;;;;193.73;151.80;;;;;;;;;;5022705;28;20025;-72
2022/07/23 08:48:29;;;;;;;147.10;120.32;;;;;;;;;;5034733;28;20021;-73
2022/07/23 08:50:56;;;;;;;134.25;106.88;;;;;;;;;;5016572;28;20041;-73
2022/07/23 08:53:23;;;;;;;123.97;97.38;;;;;;;;;;5023496;28;20436;-73
2022/07/23 08:55:51;;;;;;;129.50;106.68;;;;;;;;;;5012141;28;20026;-75
2022/07/23 08:58:26;;;;;;;218.30;175.05;;;;;;;;;;5012512;28;20041;-72
2022/07/23 09:00:53;;;;;;;188.50;152.93;;;;;;;;;;5030155;28;20025;-76
2022/07/23 09:03:21;;;;;;;248.90;213.75;;;;;;;;;;5030871;28;20018;-73
2022/07/23 09:05:47;;;;;;;208.43;174.85;;;;;;;;;;5034525;28;20391;-74
2022/07/23 09:08:15;;;;;;;262.33;231.60;;;;;;;;;;5027377;28;20018;-75
2022/07/23 09:10:44;;;;;;;162.00;135.30;;;;;;;;;;5030743;28;20247;-73
2022/07/23 09:13:23;;;;;;;241.38;212.02;;;;;;;;;;5031114;28;20056;-72
2022/07/23 09:15:54;;;;;;;233.02;199.10;;;;;;;;;;5022843;28;20053;-72
2022/07/23 09:18:20;;;;;;;202.05;169.30;;;;;;;;;;5014663;28;20033;-73
2022/07/23 09:20:46;;;;;;;204.70;173.15;;;;;;;;;;5030294;28;20121;-71
2022/07/23 09:23:12;;;;;;;107.45;89.30;;;;;;;;;;5011869;28;20527;-72
2022/07/23 09:25:38;;;;;;;170.63;140.80;;;;;;;;;;5031149;28;20057;-73
2022/07/23 09:28:07;;;;;;;102.97;86.13;;;;;;;;;;5033467;28;20024;-73
2022/07/23 09:30:34;;;;;;;70.10;56.80;;;;;;;;;;5014373;28;20030;-75
2022/07/23 09:33:16;;;;;;;46.83;36.25;;;;;;;;;;4999183;28;20034;-76
2022/07/23 09:35:51;;;;;;;127.68;105.45;;;;;;;;;;5006935;28;20026;-72
2022/07/23 09:38:18;;;;;;;105.50;84.30;;;;;;;;;;5011562;28;20022;-73
2022/07/23 09:40:45;;;;;;;123.57;103.30;;;;;;;;;;5011411;28;20040;-72
2022/07/23 09:43:27;;;;;;;109.95;88.90;;;;;;;;;;5012824;28;20096;-72
2022/07/23 09:45:53;;;;;;;135.20;113.95;;;;;;;;;;5014876;28;20034;-72
2022/07/23 09:48:19;;;;;;;146.32;126.57;;;;;;;;;;5015149;28;20029;-72
2022/07/23 09:50:45;;;;;;;115.07;97.95;;;;;;;;;;5015614;28;20384;-72
2022/07/23 09:53:27;;;;;;;109.20;93.45;;;;;;;;;;5013975;28;20373;-75
2022/07/23 09:55:57;;;;;;;67.03;55.08;;;;;;;;;;5012207;28;20080;-72
2022/07/23 09:58:26;;;;;;;124.22;105.20;;;;;;;;;;5012859;28;20041;-71
2022/07/23 10:00:55;;;;;;;55.30;47.88;;;;;;;;;;4999491;28;20046;-73
2022/07/23 10:03:24;;;;;;;145.90;130.18;;;;;;;;;;5012114;28;20068;-74
2022/07/23 10:05:50;;;;;;;182.05;163.18;;;;;;;;;;5008717;28;20030;-72
2022/07/23 10:08:18;;;;;;;163.68;146.73;;;;;;;;;;5010516;28;20486;-73
2022/07/23 10:10:46;;;;;;;78.72;70.15;;;;;;;;;;5013040;28;20024;-72
2022/07/23 10:15:42;;;;;;;129.85;116.10;;;;;;;;;;5014423;28;20026;-71
2022/07/23 10:18:10;;;;;;;88.25;78.60;;;;;;;;;;5013683;28;20021;-74
2022/07/23 10:20:37;;;;;;;122.38;109.80;;;;;;;;;;5015389;28;20038;-72
2022/07/23 10:23:25;;;;;;;42.08;36.95;;;;;;;;;;5021244;28;20093;-72
2022/07/23 10:26:01;;;;;;;43.35;38.53;;;;;;;;;;5014495;28;20041;-71
2022/07/23 10:28:31;;;;;;;86.60;75.45;;;;;;;;;;5014028;28;20113;-71
2022/07/23 10:31:10;;;;;;;52.10;46.50;;;;;;;;;;5019183;28;20025;-72
2022/07/23 10:33:59;;;;;;;70.68;62.75;;;;;;;;;;5014887;28;20045;-74
2022/07/23 10:36:41;;;;;;;44.17;37.75;;;;;;;;;;4934125;29;20040;-71
2022/07/23 10:39:20;;;;;;;64.05;56.05;;;;;;;;;;4940802;29;20454;-71
2022/07/23 10:41:46;;;;;;;32.13;28.65;;;;;;;;;;4940070;29;20043;-71
2022/07/23 10:44:23;;;;;;;55.25;47.90;;;;;;;;;;4934013;29;20052;-72
2022/07/23 10:49:28;;;;;;;63.60;56.55;;;;;;;;;;4934391;29;20383;-72
2022/07/23 10:52:13;;;;;;;43.55;38.78;;;;;;;;;;4934058;29;20024;-73
2022/07/23 10:54:42;;;;;;;39.78;34.97;;;;;;;;;;4934084;29;20123;-73
2022/07/23 10:57:09;;;;;;;104.30;93.72;;;;;;;;;;4934107;29;20039;-72
2022/07/23 10:59:54;;;;;;;78.60;70.07;;;;;;;;;;4930437;29;20036;-72
2022/07/23 11:02:25;;;;;;;51.60;46.15;;;;;;;;;;4930985;29;20110;-72
2022/07/23 11:04:52;;;;;;;39.92;34.95;;;;;;;;;;4933873;29;20028;-72
2022/07/23 11:07:18;;;;;;;58.70;52.70;;;;;;;;;;4933916;29;20455;-72
2022/07/23 11:09:46;;;;;;;42.70;36.92;;;;;;;;;;4934134;29;20070;-73
2022/07/23 11:12:21;;;;;;;38.67;33.45;;;;;;;;;;4933783;29;20035;-71
2022/07/23 11:15:04;;;;;;;41.10;36.67;;;;;;;;;;5013379;28;20373;-74
2022/07/23 11:17:31;;;;;;;54.55;48.97;;;;;;;;;;5013309;28;20022;-73
2022/07/23 11:20:10;;;;;;;20.15;17.98;;;;;;;;;;5013084;28;20034;-73
2022/07/23 11:22:37;;;;;;;47.92;43.08;;;;;;;;;;5013454;28;20026;-73
2022/07/23 11:25:03;;;;;;;35.55;31.85;;;;;;;;;;5009991;28;20025;-75
2022/07/23 11:27:45;;;;;;;42.42;37.55;;;;;;;;;;5021035;28;20022;-75
2022/07/23 11:30:31;;;;;;;25.60;21.45;;;;;;;;;;5014938;28;20022;-74
2022/07/23 11:33:13;;;;;;;27.10;22.98;;;;;;;;;;5020044;28;20104;-74
2022/07/23 11:35:40;;;;;;;32.83;29.02;;;;;;;;;;5010960;28;20369;-74
2022/07/23 11:38:08;;;;;;;25.08;21.67;;;;;;;;;;5017126;28;20017;-74
2022/07/23 11:40:34;;;;;;;24.25;21.65;;;;;;;;;;5016258;28;20033;-73
2022/07/23 11:43:27;;;;;;;20.45;18.10;;;;;;;;;;5022689;28;20044;-73
2022/07/23 11:45:54;;;;;;;22.63;20.15;;;;;;;;;;5009199;28;20080;-73
2022/07/23 11:48:21;;;;;;;22.05;19.58;;;;;;;;;;5012322;28;20014;-73
2022/07/23 11:53:45;;;;;;;17.92;10.90;;;;;;;;;;5126359;22;20050;-74
2022/07/23 11:56:11;;;;;;;17.20;13.57;;;;;;;;;;5012800;28;20380;-74
2022/07/23 11:58:39;;;;;;;19.05;16.40;;;;;;;;;;4996205;28;20037;-73
2022/07/23 12:01:05;;;;;;;14.23;12.35;;;;;;;;;;5009093;28;20026;-73
2022/07/23 12:03:31;;;;;;;11.90;8.60;;;;;;;;;;5014540;28;20028;-74
2022/07/23 12:05:58;;;;;;;14.55;10.82;;;;;;;;;;5012476;28;20030;-74
2022/07/23 12:08:24;;;;;;;14.10;10.57;;;;;;;;;;5012663;28;20026;-73
2022/07/23 12:10:51;;;;;;;11.98;10.63;;;;;;;;;;5013252;28;20080;-74
2022/07/23 12:13:18;;;;;;;14.15;10.63;;;;;;;;;;5012647;28;20100;-74
2022/07/23 12:15:57;;;;;;;16.25;12.02;;;;;;;;;;5012697;28;20073;-74
2022/07/23 12:18:24;;;;;;;12.38;9.30;;;;;;;;;;5011899;28;20029;-73
2022/07/23 12:20:52;;;;;;;14.88;11.57;;;;;;;;;;5012380;28;20128;-73
2022/07/23 12:23:25;;;;;;;13.00;11.70;;;;;;;;;;5009343;28;20105;-74
2022/07/23 12:25:55;;;;;;;11.65;10.00;;;;;;;;;;5014998;28;20479;-74
2022/07/23 12:28:22;;;;;;;16.88;10.35;;;;;;;;;;5018297;28;20098;-75
2022/07/23 12:30:50;;;;;;;17.98;15.05;;;;;;;;;;5497121;23;20069;-73
2022/07/23 12:33:22;;;;;;;9.93;8.48;;;;;;;;;;5013223;28;20052;-73
2022/07/23 12:35:49;;;;;;;49.50;44.40;;;;;;;;;;5031893;28;20030;-73
2022/07/23 12:38:16;;;;;;;41.92;37.92;;;;;;;;;;5031958;28;20026;-72
2022/07/23 12:51:00;;;;;;;56.13;50.65;;;;;;;;;;5071099;23;20054;-74
2022/07/23 12:53:30;;;;;;;31.13;27.27;;;;;;;;;;5006282;28;20071;-73
2022/07/23 12:56:02;;;;;;;51.22;45.38;;;;;;;;;;5008776;28;20030;-73
2022/07/23 12:58:39;;;;;;;37.58;33.75;;;;;;;;;;5007034;28;20116;-74
2022/07/23 13:01:06;;;;;;;48.28;43.47;;;;;;;;;;5008282;28;20045;-74
2022/07/23 13:03:33;;;;;;;24.63;22.08;;;;;;;;;;5031144;28;20022;-74
2022/07/23 13:06:00;;;;;;;25.83;23.23;;;;;;;;;;5016744;28;20033;-74
2022/07/23 13:08:27;;;;;;;27.48;24.30;;;;;;;;;;5027308;28;20475;-74
2022/07/23 13:10:53;;;;;;;33.33;30.02;;;;;;;;;;5029203;28;20105;-76
2022/07/23 13:13:23;;;;;;;15.52;13.95;;;;;;;;;;5025089;28;20133;-76
2022/07/23 13:15:50;;;;;;;11.80;7.80;;;;;;;;;;5027050;28;20037;-75
2022/07/23 13:18:16;;;;;;;23.70;21.20;;;;;;;;;;5033054;28;20105;-73
2022/07/23 13:20:44;;;;;;;23.23;20.80;;;;;;;;;;5035174;28;20030;-74
2022/07/23 13:23:10;;;;;;;13.90;10.30;;;;;;;;;;5035721;28;20028;-75
2022/07/23 13:25:36;;;;;;;18.00;16.15;;;;;;;;;;5034922;28;20037;-75
2022/07/23 13:28:03;;;;;;;21.30;19.13;;;;;;;;;;5033956;28;20384;-74
2022/07/23 13:30:29;;;;;;;20.83;18.73;;;;;;;;;;5015368;28;20021;-73
2022/07/23 13:32:55;;;;;;;19.63;17.27;;;;;;;;;;5015288;28;20022;-74
2022/07/23 13:35:21;;;;;;;13.70;11.02;;;;;;;;;;5015518;28;20044;-74
2022/07/23 13:37:47;;;;;;;12.95;11.57;;;;;;;;;;5015399;28;20576;-74
2022/07/23 13:40:14;;;;;;;16.23;14.65;;;;;;;;;;5015146;28;20116;-74
2022/07/23 13:42:40;;;;;;;13.43;9.93;;;;;;;;;;5015115;28;20022;-73
2022/07/23 13:45:06;;;;;;;10.75;7.57;;;;;;;;;;5015187;28;20076;-74
2022/07/23 13:47:33;;;;;;;13.55;12.20;;;;;;;;;;5015113;28;20026;-73
2022/07/23 13:49:59;;;;;;;9.98;8.88;;;;;;;;;;5014723;28;20136;-72
2022/07/23 13:52:25;;;;;;;11.10;9.75;;;;;;;;;;5001400;28;20484;-74
2022/07/23 13:54:51;;;;;;;12.60;11.32;;;;;;;;;;4978188;28;20038;-73
2022/07/23 13:57:17;;;;;;;13.48;11.93;;;;;;;;;;5013181;28;20022;-72
2022/07/23 13:59:43;;;;;;;9.77;8.88;;;;;;;;;;5014976;28;20038;-73
2022/07/23 14:02:09;;;;;;;12.90;11.63;;;;;;;;;;5014580;28;20097;-71
2022/07/23 14:04:36;;;;;;;11.68;9.23;;;;;;;;;;5015248;28;20034;-72
2022/07/23 14:07:02;;;;;;;11.57;10.48;;;;;;;;;;5014787;28;20362;-72
2022/07/23 14:09:29;;;;;;;12.50;11.30;;;;;;;;;;5017060;28;20032;-72
2022/07/23 14:11:55;;;;;;;13.05;11.57;;;;;;;;;;5021567;28;20349;-75
2022/07/23 14:14:21;;;;;;;12.15;11.00;;;;;;;;;;5017973;28;20413;-72
2022/07/23 14:16:47;;;;;;;12.30;10.60;;;;;;;;;;4996876;28;20037;-72
2022/07/23 14:19:13;;;;;;;9.75;8.70;;;;;;;;;;5014274;28;20161;-73
2022/07/23 14:21:39;;;;;;;10.20;8.43;;;;;;;;;;5021274;28;20017;-71
2022/07/23 14:24:06;;;;;;;12.35;10.38;;;;;;;;;;5020419;28;20112;-72
2022/07/23 14:26:32;;;;;;;12.68;10.80;;;;;;;;;;5003107;28;20034;-72
2022/07/23 14:31:24;;;;;;;10.90;9.80;;;;;;;;;;5015781;23;20052;-77
2022/07/23 14:33:51;;;;;;;14.18;10.15;;;;;;;;;;5004508;28;20076;-74
2022/07/23 14:36:17;;;;;;;11.32;10.15;;;;;;;;;;5013908;28;20542;-75
2022/07/23 14:38:43;;;;;;;13.88;10.05;;;;;;;;;;5013969;28;20030;-75
2022/07/23 14:41:09;;;;;;;10.98;9.00;;;;;;;;;;5015515;28;20381;-74
2022/07/23 14:43:35;;;;;;;13.90;9.48;;;;;;;;;;5022158;28;20037;-74
2022/07/23 14:46:01;;;;;;;11.40;9.38;;;;;;;;;;5022127;28;20049;-77
2022/07/23 14:48:27;;;;;;;11.65;8.45;;;;;;;;;;5018139;28;20084;-73
2022/07/23 14:50:54;;;;;;;11.52;9.30;;;;;;;;;;4996433;28;20022;-74